sensor_id;sensor_type;location;lat;lon;timestamp;pressure;altitude;pressure_sealevel;temperature;humidity
45285;BME280;31026;43.780;25.948;2022-07-30T00:01:03;100773.31;;;26.06;62.26
45285;BME280;31026;43.780;25.948;2022-07-30T00:03:31;100761.28;;;26.09;62.61
45285;BME280;31026;43.780;25.948;2022-07-30T00:05:59;100763.13;;;26.08;62.14
45285;BME280;31026;43.780;25.948;2022-07-30T00:08:30;100759.09;;;26.04;62.45
45285;BME280;31026;43.780;25.948;2022-07-30T00:10:59;100761.66;;;26.06;62.50
45285;BME280;31026;43.780;25.948;2022-07-30T00:13:27;100764.53;;;26.04;62.56
45285;BME280;31026;43.780;25.948;2022-07-30T00:15:55;100741.84;;;26.05;62.50
45285;BME280;31026;43.780;25.948;2022-07-30T00:18:24;100778.38;;;26.09;62.54
45285;BME280;31026;43.780;25.948;2022-07-30T00:20:52;100765.41;;;26.05;62.57
45285;BME280;31026;43.780;25.948;2022-07-30T00:23:20;100763.69;;;26.04;62.50
45285;BME280;31026;43.780;25.948;2022-07-30T00:25:51;100756.22;;;26.06;62.43
45285;BME280;31026;43.780;25.948;2022-07-30T00:28:20;100761.66;;;26.06;62.56
45285;BME280;31026;43.780;25.948;2022-07-30T00:30:48;100770.59;;;26.06;62.40
45285;BME280;31026;43.780;25.948;2022-07-30T00:33:16;100768.09;;;26.05;62.45
45285;BME280;31026;43.780;25.948;2022-07-30T00:35:45;100764.19;;;26.07;62.35
45285;BME280;31026;43.780;25.948;2022-07-30T00:38:13;100761.66;;;26.06;62.39
45285;BME280;31026;43.780;25.948;2022-07-30T00:40:41;100752.69;;;26.05;62.31
45285;BME280;31026;43.780;25.948;2022-07-30T00:43:15;100772.31;;;26.07;62.29
45285;BME280;31026;43.780;25.948;2022-07-30T00:45:43;100773.81;;;26.10;62.33
45285;BME280;31026;43.780;25.948;2022-07-30T00:48:13;100760.81;;;26.05;62.34
45285;BME280;31026;43.780;25.948;2022-07-30T00:50:41;100747.44;;;26.04;62.45
45285;BME280;31026;43.780;25.948;2022-07-30T00:53:10;100760.44;;;26.08;62.22
45285;BME280;31026;43.780;25.948;2022-07-30T00:55:38;100772.97;;;26.09;62.37
45285;BME280;31026;43.780;25.948;2022-07-30T00:58:07;100766.72;;;26.09;62.20
45285;BME280;31026;43.780;25.948;2022-07-30T01:00:37;100764.19;;;26.07;62.30
45285;BME280;31026;43.780;25.948;2022-07-30T01:03:06;100766.22;;;26.05;62.57
45285;BME280;31026;43.780;25.948;2022-07-30T01:05:34;100757.94;;;26.07;62.42
45285;BME280;31026;43.780;25.948;2022-07-30T01:08:03;100750.31;;;26.02;62.41
45285;BME280;31026;43.780;25.948;2022-07-30T01:10:31;100749.13;;;26.05;62.50
45285;BME280;31026;43.780;25.948;2022-07-30T01:13:00;100746.22;;;26.06;62.23
45285;BME280;31026;43.780;25.948;2022-07-30T01:15:29;100740.13;;;26.04;62.41
45285;BME280;31026;43.780;25.948;2022-07-30T01:18:00;100740.69;;;25.99;62.28
45285;BME280;31026;43.780;25.948;2022-07-30T01:20:31;100752.56;;;25.98;62.54
45285;BME280;31026;43.780;25.948;2022-07-30T01:23:00;100743.22;;;26.01;62.50
45285;BME280;31026;43.780;25.948;2022-07-30T01:28:27;100746.59;;;26.03;62.61
45285;BME280;31026;43.780;25.948;2022-07-30T01:30:57;100748.66;;;26.01;62.59
45285;BME280;31026;43.780;25.948;2022-07-30T01:33:26;100732.41;;;26.01;62.49
45285;BME280;31026;43.780;25.948;2022-07-30T01:35:54;100744.06;;;26.02;62.54
45285;BME280;31026;43.780;25.948;2022-07-30T01:38:25;100744.72;;;26.04;62.28
45285;BME280;31026;43.780;25.948;2022-07-30T01:40:54;100739.47;;;26.02;62.40
45285;BME280;31026;43.780;25.948;2022-07-30T01:43:23;100732.41;;;26.01;62.35
45285;BME280;31026;43.780;25.948;2022-07-30T01:45:55;100725.09;;;26.02;62.32
45285;BME280;31026;43.780;25.948;2022-07-30T01:48:24;100725.28;;;26.00;62.44
45285;BME280;31026;43.780;25.948;2022-07-30T01:50:56;100722.88;;;26.05;62.52
45285;BME280;31026;43.780;25.948;2022-07-30T01:53:26;100734.06;;;26.02;62.34
45285;BME280;31026;43.780;25.948;2022-07-30T01:55:56;100725.66;;;25.97;62.56
45285;BME280;31026;43.780;25.948;2022-07-30T01:58:26;100729.88;;;25.99;62.63
45285;BME280;31026;43.780;25.948;2022-07-30T02:00:58;100727.81;;;26.02;62.35
45285;BME280;31026;43.780;25.948;2022-07-30T02:03:27;100729.50;;;26.03;62.48
45285;BME280;31026;43.780;25.948;2022-07-30T02:05:57;100728.66;;;26.02;62.28
45285;BME280;31026;43.780;25.948;2022-07-30T02:08:29;100728.00;;;26.00;62.25
45285;BME280;31026;43.780;25.948;2022-07-30T02:11:03;100710.72;;;26.01;62.37
45285;BME280;31026;43.780;25.948;2022-07-30T02:13:33;100722.22;;;26.03;62.39
45285;BME280;31026;43.780;25.948;2022-07-30T02:16:10;100724.25;;;26.01;62.37
45285;BME280;31026;43.780;25.948;2022-07-30T02:18:42;100704.63;;;25.99;62.38
45285;BME280;31026;43.780;25.948;2022-07-30T02:21:16;100715.75;;;26.04;62.54
45285;BME280;31026;43.780;25.948;2022-07-30T02:23:46;100718.84;;;26.01;62.46
45285;BME280;31026;43.780;25.948;2022-07-30T02:26:16;100713.59;;;25.99;62.48
45285;BME280;31026;43.780;25.948;2022-07-30T02:28:47;100703.59;;;26.00;62.38
45285;BME280;31026;43.780;25.948;2022-07-30T02:31:19;100709.88;;;26.01;62.49
45285;BME280;31026;43.780;25.948;2022-07-30T02:33:49;100719.50;;;26.03;62.33
45285;BME280;31026;43.780;25.948;2022-07-30T02:36:20;100703.63;;;25.54;58.02
45285;BME280;31026;43.780;25.948;2022-07-30T02:38:50;100717.28;;;24.98;57.53
45285;BME280;31026;43.780;25.948;2022-07-30T02:41:19;100723.31;;;24.69;58.28
45285;BME280;31026;43.780;25.948;2022-07-30T02:43:48;100727.22;;;25.06;58.49
45285;BME280;31026;43.780;25.948;2022-07-30T02:46:20;100731.19;;;25.57;57.23
45285;BME280;31026;43.780;25.948;2022-07-30T02:48:50;100731.84;;;25.83;57.49
45285;BME280;31026;43.780;25.948;2022-07-30T02:51:20;100708.78;;;25.87;58.05
45285;BME280;31026;43.780;25.948;2022-07-30T02:53:49;100727.38;;;25.90;59.10
45285;BME280;31026;43.780;25.948;2022-07-30T02:56:18;100723.00;;;25.89;59.35
45285;BME280;31026;43.780;25.948;2022-07-30T02:58:48;100721.47;;;25.86;59.94
45285;BME280;31026;43.780;25.948;2022-07-30T03:01:17;100722.63;;;25.92;59.97
45285;BME280;31026;43.780;25.948;2022-07-30T03:03:49;100721.94;;;25.90;60.40
45285;BME280;31026;43.780;25.948;2022-07-30T03:06:18;100735.66;;;25.88;60.49
45285;BME280;31026;43.780;25.948;2022-07-30T03:08:47;100715.22;;;25.86;60.29
45285;BME280;31026;43.780;25.948;2022-07-30T03:11:17;100720.47;;;25.87;60.30
45285;BME280;31026;43.780;25.948;2022-07-30T03:13:46;100730.06;;;25.90;60.44
45285;BME280;31026;43.780;25.948;2022-07-30T03:16:14;100724.66;;;25.90;60.55
45285;BME280;31026;43.780;25.948;2022-07-30T03:18:44;100731.81;;;25.91;60.39
45285;BME280;31026;43.780;25.948;2022-07-30T03:21:16;100723.31;;;25.94;60.43
45285;BME280;31026;43.780;25.948;2022-07-30T03:23:47;100720.97;;;25.91;60.73
45285;BME280;31026;43.780;25.948;2022-07-30T03:26:16;100735.19;;;25.93;60.64
45285;BME280;31026;43.780;25.948;2022-07-30T03:28:47;100750.69;;;25.99;60.72
45285;BME280;31026;43.780;25.948;2022-07-30T03:31:16;100751.91;;;25.96;60.62
45285;BME280;31026;43.780;25.948;2022-07-30T03:33:45;100733.13;;;25.95;60.60
45285;BME280;31026;43.780;25.948;2022-07-30T03:36:13;100744.44;;;25.98;60.74
45285;BME280;31026;43.780;25.948;2022-07-30T03:38:45;100748.00;;;25.99;60.68
45285;BME280;31026;43.780;25.948;2022-07-30T03:41:14;100748.16;;;25.97;60.92
45285;BME280;31026;43.780;25.948;2022-07-30T03:43:43;100757.34;;;25.96;60.87
45285;BME280;31026;43.780;25.948;2022-07-30T03:46:12;100749.75;;;25.92;60.85
45285;BME280;31026;43.780;25.948;2022-07-30T03:48:41;100747.69;;;25.94;60.98
45285;BME280;31026;43.780;25.948;2022-07-30T03:51:10;100750.56;;;25.92;61.15
45285;BME280;31026;43.780;25.948;2022-07-30T03:53:38;100754.16;;;25.93;60.97
45285;BME280;31026;43.780;25.948;2022-07-30T03:56:10;100747.38;;;25.89;60.97
45285;BME280;31026;43.780;25.948;2022-07-30T03:58:39;100748.06;;;25.91;61.18
45285;BME280;31026;43.780;25.948;2022-07-30T04:01:08;100772.25;;;25.92;61.21
45285;BME280;31026;43.780;25.948;2022-07-30T04:03:36;100755.16;;;25.92;61.23
45285;BME280;31026;43.780;25.948;2022-07-30T04:06:05;100755.81;;;25.94;61.14
45285;BME280;31026;43.780;25.948;2022-07-30T04:08:33;100753.09;;;25.94;61.09
45285;BME280;31026;43.780;25.948;2022-07-30T04:11:01;100759.56;;;25.93;61.17
45285;BME280;31026;43.780;25.948;2022-07-30T04:13:33;100771.53;;;25.98;61.03
45285;BME280;31026;43.780;25.948;2022-07-30T04:16:01;100759.00;;;25.97;61.17
45285;BME280;31026;43.780;25.948;2022-07-30T04:18:34;100757.78;;;26.00;60.85
45285;BME280;31026;43.780;25.948;2022-07-30T04:21:04;100744.44;;;25.98;60.90
45285;BME280;31026;43.780;25.948;2022-07-30T04:23:32;100755.63;;;25.95;61.01
45285;BME280;31026;43.780;25.948;2022-07-30T04:26:01;100749.88;;;25.98;61.05
45285;BME280;31026;43.780;25.948;2022-07-30T04:28:29;100759.50;;;26.01;61.10
45285;BME280;31026;43.780;25.948;2022-07-30T04:31:00;100772.31;;;26.07;61.11
45285;BME280;31026;43.780;25.948;2022-07-30T04:33:29;100757.44;;;26.03;61.20
45285;BME280;31026;43.780;25.948;2022-07-30T04:35:57;100771.47;;;26.07;61.20
45285;BME280;31026;43.780;25.948;2022-07-30T04:38:26;100767.91;;;26.06;60.87
45285;BME280;31026;43.780;25.948;2022-07-30T04:40:54;100754.19;;;26.08;61.21
45285;BME280;31026;43.780;25.948;2022-07-30T04:43:23;100758.41;;;26.10;61.04
45285;BME280;31026;43.780;25.948;2022-07-30T04:45:51;100753.25;;;26.15;60.99
45285;BME280;31026;43.780;25.948;2022-07-30T04:48:22;100748.22;;;26.12;61.07
45285;BME280;31026;43.780;25.948;2022-07-30T04:50:52;100751.78;;;26.13;60.89
45285;BME280;31026;43.780;25.948;2022-07-30T04:53:22;100747.38;;;26.12;61.18
45285;BME280;31026;43.780;25.948;2022-07-30T04:55:51;100754.31;;;26.14;60.92
45285;BME280;31026;43.780;25.948;2022-07-30T04:58:20;100752.25;;;26.16;61.19
45285;BME280;31026;43.780;25.948;2022-07-30T05:00:50;100759.53;;;26.16;61.10
45285;BME280;31026;43.780;25.948;2022-07-30T05:03:19;100752.25;;;26.16;60.86
45285;BME280;31026;43.780;25.948;2022-07-30T05:05:51;100745.78;;;26.17;61.12
45285;BME280;31026;43.780;25.948;2022-07-30T05:08:19;100747.75;;;26.24;60.86
45285;BME280;31026;43.780;25.948;2022-07-30T05:10:48;100754.50;;;26.28;60.80
45285;BME280;31026;43.780;25.948;2022-07-30T05:13:16;100752.81;;;26.27;60.93
45285;BME280;31026;43.780;25.948;2022-07-30T05:15:44;100754.31;;;26.29;60.77
45285;BME280;31026;43.780;25.948;2022-07-30T05:18:13;100759.91;;;26.28;60.90
45285;BME280;31026;43.780;25.948;2022-07-30T05:20:41;100749.06;;;26.28;60.92
45285;BME280;31026;43.780;25.948;2022-07-30T05:23:12;100755.81;;;26.32;60.72
45285;BME280;31026;43.780;25.948;2022-07-30T05:25:40;100757.03;;;26.29;60.83
45285;BME280;31026;43.780;25.948;2022-07-30T05:28:09;100754.97;;;26.31;60.93
45285;BME280;31026;43.780;25.948;2022-07-30T05:30:37;100744.97;;;26.32;60.80
45285;BME280;31026;43.780;25.948;2022-07-30T05:33:06;100739.94;;;26.29;60.74
45285;BME280;31026;43.780;25.948;2022-07-30T05:35:34;100741.44;;;26.31;60.81
45285;BME280;31026;43.780;25.948;2022-07-30T05:38:02;100746.00;;;26.31;61.05
45285;BME280;31026;43.780;25.948;2022-07-30T05:40:33;100751.69;;;26.36;60.95
45285;BME280;31026;43.780;25.948;2022-07-30T05:43:02;100756.47;;;26.34;60.74
45285;BME280;31026;43.780;25.948;2022-07-30T05:45:30;100750.38;;;26.32;60.83
45285;BME280;31026;43.780;25.948;2022-07-30T05:47:59;100757.88;;;26.30;60.97
45285;BME280;31026;43.780;25.948;2022-07-30T05:50:27;100740.75;;;26.29;60.91
45285;BME280;31026;43.780;25.948;2022-07-30T05:52:56;100735.16;;;26.31;60.89
45285;BME280;31026;43.780;25.948;2022-07-30T05:55:24;100756.69;;;26.32;61.02
45285;BME280;31026;43.780;25.948;2022-07-30T06:08:35;100761.22;;;26.32;61.00
45285;BME280;31026;43.780;25.948;2022-07-30T06:11:08;100748.06;;;26.29;60.96
45285;BME280;31026;43.780;25.948;2022-07-30T06:13:37;100750.03;;;26.35;60.89
45285;BME280;31026;43.780;25.948;2022-07-30T06:16:13;100751.25;;;26.32;60.88
45285;BME280;31026;43.780;25.948;2022-07-30T06:18:48;100737.50;;;26.34;60.91
45285;BME280;31026;43.780;25.948;2022-07-30T06:21:18;100741.50;;;26.38;61.16
45285;BME280;31026;43.780;25.948;2022-07-30T06:24:03;100742.38;;;26.38;61.11
45285;BME280;31026;43.780;25.948;2022-07-30T06:26:36;100739.66;;;26.38;60.84
45285;BME280;31026;43.780;25.948;2022-07-30T06:29:09;100748.63;;;26.39;60.88
45285;BME280;31026;43.780;25.948;2022-07-30T06:31:39;100737.78;;;26.39;60.92
45285;BME280;31026;43.780;25.948;2022-07-30T06:34:07;100737.78;;;26.39;60.75
45285;BME280;31026;43.780;25.948;2022-07-30T06:36:59;100737.13;;;26.37;60.71
45285;BME280;31026;43.780;25.948;2022-07-30T06:39:32;100741.81;;;26.43;61.07
45285;BME280;31026;43.780;25.948;2022-07-30T06:42:08;100733.38;;;26.38;60.89
45285;BME280;31026;43.780;25.948;2022-07-30T06:44:59;100718.81;;;26.39;60.84
45285;BME280;31026;43.780;25.948;2022-07-30T06:47:30;100736.09;;;26.38;61.00
45285;BME280;31026;43.780;25.948;2022-07-30T06:49:59;100721.34;;;26.41;60.98
45285;BME280;31026;43.780;25.948;2022-07-30T06:52:30;100720.47;;;26.40;60.88
45285;BME280;31026;43.780;25.948;2022-07-30T06:57:47;100714.22;;;26.39;61.02
45285;BME280;31026;43.780;25.948;2022-07-30T07:00:24;100708.81;;;26.39;60.95
45285;BME280;31026;43.780;25.948;2022-07-30T07:02:52;100701.50;;;26.40;60.94
45285;BME280;31026;43.780;25.948;2022-07-30T07:05:21;100712.16;;;26.42;61.24
45285;BME280;31026;43.780;25.948;2022-07-30T07:08:04;100711.34;;;26.41;60.79
45285;BME280;31026;43.780;25.948;2022-07-30T07:10:34;100718.25;;;26.44;60.79
45285;BME280;31026;43.780;25.948;2022-07-30T07:13:07;100704.88;;;26.42;61.13
45285;BME280;31026;43.780;25.948;2022-07-30T07:15:47;100712.47;;;26.47;61.05
45285;BME280;31026;43.780;25.948;2022-07-30T07:18:18;100713.00;;;26.42;61.13
45285;BME280;31026;43.780;25.948;2022-07-30T07:20:46;100693.00;;;26.43;61.22
45285;BME280;31026;43.780;25.948;2022-07-30T07:23:33;100699.44;;;26.42;61.24
45285;BME280;31026;43.780;25.948;2022-07-30T07:26:08;100688.59;;;26.42;61.01
45285;BME280;31026;43.780;25.948;2022-07-30T07:28:45;100697.13;;;26.39;61.22
45285;BME280;31026;43.780;25.948;2022-07-30T07:31:16;100693.38;;;26.40;61.20
45285;BME280;31026;43.780;25.948;2022-07-30T07:33:47;100697.78;;;26.41;61.09
45285;BME280;31026;43.780;25.948;2022-07-30T07:36:39;100702.16;;;26.42;61.25
45285;BME280;31026;43.780;25.948;2022-07-30T07:39:08;100695.06;;;26.41;61.07
45285;BME280;31026;43.780;25.948;2022-07-30T07:41:45;100694.88;;;26.43;61.20
45285;BME280;31026;43.780;25.948;2022-07-30T07:44:18;100698.59;;;26.42;60.95
45285;BME280;31026;43.780;25.948;2022-07-30T07:46:46;100684.22;;;26.41;61.09
45285;BME280;31026;43.780;25.948;2022-07-30T07:49:15;100694.22;;;26.41;61.20
45285;BME280;31026;43.780;25.948;2022-07-30T07:51:43;100698.44;;;26.43;61.26
45285;BME280;31026;43.780;25.948;2022-07-30T07:54:20;100685.72;;;26.44;61.16
45285;BME280;31026;43.780;25.948;2022-07-30T07:56:58;100689.28;;;26.44;61.32
45285;BME280;31026;43.780;25.948;2022-07-30T07:59:35;100690.13;;;26.45;60.96
45285;BME280;31026;43.780;25.948;2022-07-30T08:02:30;100683.84;;;26.44;61.31
45285;BME280;31026;43.780;25.948;2022-07-30T08:05:06;100693.66;;;26.45;61.01
45285;BME280;31026;43.780;25.948;2022-07-30T08:07:50;100679.44;;;26.43;61.15
45285;BME280;31026;43.780;25.948;2022-07-30T08:10:22;100680.09;;;26.45;61.12
45285;BME280;31026;43.780;25.948;2022-07-30T08:12:50;100684.88;;;26.43;61.35
45285;BME280;31026;43.780;25.948;2022-07-30T08:15:37;100682.63;;;26.47;61.33
45285;BME280;31026;43.780;25.948;2022-07-30T08:18:14;100688.41;;;26.44;61.36
45285;BME280;31026;43.780;25.948;2022-07-30T08:20:47;100683.84;;;26.44;60.92
45285;BME280;31026;43.780;25.948;2022-07-30T08:23:16;100691.78;;;26.46;61.18
45285;BME280;31026;43.780;25.948;2022-07-30T08:25:57;100679.44;;;26.43;61.25
45285;BME280;31026;43.780;25.948;2022-07-30T08:28:30;100680.28;;;26.44;61.16
45285;BME280;31026;43.780;25.948;2022-07-30T08:31:02;100692.00;;;26.44;61.17
45285;BME280;31026;43.780;25.948;2022-07-30T08:33:36;100687.41;;;26.45;61.39
45285;BME280;31026;43.780;25.948;2022-07-30T08:36:18;100674.22;;;26.42;61.18
45285;BME280;31026;43.780;25.948;2022-07-30T08:38:48;100673.00;;;26.44;61.24
45285;BME280;31026;43.780;25.948;2022-07-30T08:41:18;100682.16;;;26.43;61.17
45285;BME280;31026;43.780;25.948;2022-07-30T08:43:55;100682.44;;;26.48;61.26
45285;BME280;31026;43.780;25.948;2022-07-30T08:46:29;100677.56;;;26.44;61.26
45285;BME280;31026;43.780;25.948;2022-07-30T08:49:13;100665.91;;;26.43;61.03
45285;BME280;31026;43.780;25.948;2022-07-30T08:51:41;100654.03;;;26.44;61.18
45285;BME280;31026;43.780;25.948;2022-07-30T08:54:10;100667.19;;;26.47;61.09
45285;BME280;31026;43.780;25.948;2022-07-30T08:56:49;100658.78;;;26.42;61.38
45285;BME280;31026;43.780;25.948;2022-07-30T08:59:22;100666.72;;;26.44;61.07
45285;BME280;31026;43.780;25.948;2022-07-30T09:01:55;100647.56;;;26.45;61.08
45285;BME280;31026;43.780;25.948;2022-07-30T09:04:25;100655.03;;;26.43;61.33
45285;BME280;31026;43.780;25.948;2022-07-30T09:06:53;100647.56;;;26.45;61.37
45285;BME280;31026;43.780;25.948;2022-07-30T09:12:00;100635.88;;;26.45;61.22
45285;BME280;31026;43.780;25.948;2022-07-30T09:14:30;100640.09;;;26.47;61.10
45285;BME280;31026;43.780;25.948;2022-07-30T09:17:03;100626.72;;;26.46;61.36
45285;BME280;31026;43.780;25.948;2022-07-30T09:19:33;100637.00;;;26.50;61.31
45285;BME280;31026;43.780;25.948;2022-07-30T09:22:09;100636.34;;;26.48;61.42
45285;BME280;31026;43.780;25.948;2022-07-30T09:24:42;100623.81;;;26.47;61.36
45285;BME280;31026;43.780;25.948;2022-07-30T09:27:10;100615.03;;;26.45;61.31
45285;BME280;31026;43.780;25.948;2022-07-30T09:29:55;100631.66;;;26.42;61.24
45285;BME280;31026;43.780;25.948;2022-07-30T09:32:38;100616.06;;;26.44;61.63
45285;BME280;31026;43.780;25.948;2022-07-30T09:35:26;100609.59;;;26.45;61.17
45285;BME280;31026;43.780;25.948;2022-07-30T09:38:03;100604.53;;;26.42;61.59
45285;BME280;31026;43.780;25.948;2022-07-30T09:40:33;100609.59;;;26.45;61.54
45285;BME280;31026;43.780;25.948;2022-07-30T09:43:02;100602.94;;;26.48;61.47
45285;BME280;31026;43.780;25.948;2022-07-30T09:45:31;100604.53;;;26.42;61.43
45285;BME280;31026;43.780;25.948;2022-07-30T09:48:07;100607.94;;;26.44;61.43
45285;BME280;31026;43.780;25.948;2022-07-30T09:50:52;100602.50;;;26.44;61.55
45285;BME280;31026;43.780;25.948;2022-07-30T09:53:22;100605.22;;;26.44;61.48
45285;BME280;31026;43.780;25.948;2022-07-30T09:58:55;100604.19;;;26.45;61.42
45285;BME280;31026;43.780;25.948;2022-07-30T10:01:25;100601.66;;;26.44;61.63
45285;BME280;31026;43.780;25.948;2022-07-30T10:04:02;100589.97;;;26.43;61.45
45285;BME280;31026;43.780;25.948;2022-07-30T10:06:31;100586.25;;;26.44;61.57
45285;BME280;31026;43.780;25.948;2022-07-30T10:08:59;100584.56;;;26.43;61.48
45285;BME280;31026;43.780;25.948;2022-07-30T10:11:28;100580.81;;;26.44;61.47
45285;BME280;31026;43.780;25.948;2022-07-30T10:13:59;100586.25;;;26.44;61.48
45285;BME280;31026;43.780;25.948;2022-07-30T10:16:37;100571.00;;;26.43;61.52
45285;BME280;31026;43.780;25.948;2022-07-30T10:19:20;100572.00;;;26.42;61.47
45285;BME280;31026;43.780;25.948;2022-07-30T10:21:48;100572.00;;;26.42;61.45
45285;BME280;31026;43.780;25.948;2022-07-30T10:24:18;100569.97;;;26.44;61.35
45285;BME280;31026;43.780;25.948;2022-07-30T10:27:07;100563.03;;;26.42;61.70
45285;BME280;31026;43.780;25.948;2022-07-30T10:29:38;100564.91;;;26.41;61.41
45285;BME280;31026;43.780;25.948;2022-07-30T10:32:09;100557.81;;;26.40;61.60
45285;BME280;31026;43.780;25.948;2022-07-30T10:34:49;100548.66;;;26.41;61.57
45285;BME280;31026;43.780;25.948;2022-07-30T10:37:20;100544.91;;;26.42;61.52
45285;BME280;31026;43.780;25.948;2022-07-30T10:40:09;100548.94;;;26.46;61.55
45285;BME280;31026;43.780;25.948;2022-07-30T10:42:48;100533.31;;;26.48;61.48
45285;BME280;31026;43.780;25.948;2022-07-30T10:48:05;100528.06;;;26.47;61.28
45285;BME280;31026;43.780;25.948;2022-07-30T10:53:43;100533.69;;;26.45;61.67
45285;BME280;31026;43.780;25.948;2022-07-30T10:56:13;100539.28;;;26.44;61.54
45285;BME280;31026;43.780;25.948;2022-07-30T10:59:01;100537.44;;;26.44;61.65
45285;BME280;31026;43.780;25.948;2022-07-30T11:04:17;100508.81;;;26.42;61.62
45285;BME280;31026;43.780;25.948;2022-07-30T11:09:51;100509.28;;;26.45;61.60
45285;BME280;31026;43.780;25.948;2022-07-30T11:15:09;100518.53;;;26.51;61.45
45285;BME280;31026;43.780;25.948;2022-07-30T11:20:26;100521.59;;;26.48;61.51
45285;BME280;31026;43.780;25.948;2022-07-30T11:23:07;100507.84;;;26.49;61.65
45285;BME280;31026;43.780;25.948;2022-07-30T11:25:43;100505.34;;;26.48;61.58
45285;BME280;31026;43.780;25.948;2022-07-30T11:37:04;100481.41;;;26.51;61.32
45285;BME280;31026;43.780;25.948;2022-07-30T11:42:32;100486.44;;;26.54;61.37
45285;BME280;31026;43.780;25.948;2022-07-30T11:47:55;100474.72;;;26.54;61.37
45285;BME280;31026;43.780;25.948;2022-07-30T11:50:27;100470.34;;;26.53;61.49
45285;BME280;31026;43.780;25.948;2022-07-30T11:52:59;100458.22;;;26.49;61.61
45285;BME280;31026;43.780;25.948;2022-07-30T11:55:29;100442.78;;;26.49;61.54
45285;BME280;31026;43.780;25.948;2022-07-30T11:58:09;100448.66;;;26.53;61.61
45285;BME280;31026;43.780;25.948;2022-07-30T12:00:40;100452.63;;;26.50;61.46
45285;BME280;31026;43.780;25.948;2022-07-30T12:03:12;100449.13;;;26.56;61.38
45285;BME280;31026;43.780;25.948;2022-07-30T12:05:42;100426.78;;;26.54;61.56
45285;BME280;31026;43.780;25.948;2022-07-30T12:08:11;100429.50;;;26.54;61.36
45285;BME280;31026;43.780;25.948;2022-07-30T12:10:40;100432.22;;;26.54;61.43
45285;BME280;31026;43.780;25.948;2022-07-30T12:13:15;100436.25;;;26.58;61.59
45285;BME280;31026;43.780;25.948;2022-07-30T12:15:46;100425.94;;;26.54;61.61
45285;BME280;31026;43.780;25.948;2022-07-30T12:18:23;100420.81;;;26.59;61.30
45285;BME280;31026;43.780;25.948;2022-07-30T12:20:53;100405.72;;;26.56;61.57
45285;BME280;31026;43.780;25.948;2022-07-30T12:23:27;100403.84;;;26.57;61.34
45285;BME280;31026;43.780;25.948;2022-07-30T12:25:59;100403.84;;;26.57;61.34
45285;BME280;31026;43.780;25.948;2022-07-30T12:28:35;100392.84;;;26.58;61.65
45285;BME280;31026;43.780;25.948;2022-07-30T12:31:05;100393.84;;;26.57;61.48
45285;BME280;31026;43.780;25.948;2022-07-30T12:33:35;100386.19;;;26.61;61.61
45285;BME280;31026;43.780;25.948;2022-07-30T12:36:06;100383.66;;;26.59;61.43
45285;BME280;31026;43.780;25.948;2022-07-30T12:38:44;100374.84;;;26.57;61.57
45285;BME280;31026;43.780;25.948;2022-07-30T12:41:15;100365.72;;;26.58;61.33
45285;BME280;31026;43.780;25.948;2022-07-30T12:43:57;100371.16;;;26.58;61.27
45285;BME280;31026;43.780;25.948;2022-07-30T12:46:26;100352.81;;;26.61;61.35
45285;BME280;31026;43.780;25.948;2022-07-30T12:48:56;100345.03;;;26.57;61.61
45285;BME280;31026;43.780;25.948;2022-07-30T12:51:29;100338.63;;;26.58;61.31
45285;BME280;31026;43.780;25.948;2022-07-30T12:54:13;100338.63;;;26.58;61.37
45285;BME280;31026;43.780;25.948;2022-07-30T12:56:54;100320.63;;;26.57;61.41
45285;BME280;31026;43.780;25.948;2022-07-30T12:59:28;100330.72;;;26.64;61.41
45285;BME280;31026;43.780;25.948;2022-07-30T13:01:56;100321.47;;;26.58;61.47
45285;BME280;31026;43.780;25.948;2022-07-30T13:04:28;100316.91;;;26.58;61.43
45285;BME280;31026;43.780;25.948;2022-07-30T13:07:12;100324.00;;;26.59;61.20
45285;BME280;31026;43.780;25.948;2022-07-30T13:09:41;100320.63;;;26.57;61.32
45285;BME280;31026;43.780;25.948;2022-07-30T13:12:11;100295.56;;;26.55;61.50
45285;BME280;31026;43.780;25.948;2022-07-30T13:14:48;100296.41;;;26.56;61.38
45285;BME280;31026;43.780;25.948;2022-07-30T13:17:18;100301.00;;;26.55;61.28
45285;BME280;31026;43.780;25.948;2022-07-30T13:19:47;100299.59;;;26.59;61.60
45285;BME280;31026;43.780;25.948;2022-07-30T13:22:19;100298.28;;;26.55;61.43
45285;BME280;31026;43.780;25.948;2022-07-30T13:24:47;100278.94;;;26.58;61.37
45285;BME280;31026;43.780;25.948;2022-07-30T13:27:16;100289.38;;;26.62;61.41
45285;BME280;31026;43.780;25.948;2022-07-30T13:29:54;100267.69;;;26.62;61.35
45285;BME280;31026;43.780;25.948;2022-07-30T13:32:23;100284.59;;;26.64;61.17
45285;BME280;31026;43.780;25.948;2022-07-30T13:34:55;100284.59;;;26.64;61.54
45285;BME280;31026;43.780;25.948;2022-07-30T13:37:31;100279.81;;;26.66;61.38
45285;BME280;31026;43.780;25.948;2022-07-30T13:40:01;100284.03;;;26.68;61.19
45285;BME280;31026;43.780;25.948;2022-07-30T13:42:31;100284.41;;;26.65;61.20
45285;BME280;31026;43.780;25.948;2022-07-30T13:45:04;100267.69;;;26.62;61.34
45285;BME280;31026;43.780;25.948;2022-07-30T13:47:36;100249.34;;;26.64;61.35
45285;BME280;31026;43.780;25.948;2022-07-30T13:50:09;100250.84;;;26.66;61.38
45285;BME280;31026;43.780;25.948;2022-07-30T13:52:38;100246.00;;;26.62;61.44
45285;BME280;31026;43.780;25.948;2022-07-30T13:55:10;100248.13;;;26.66;61.17
45285;BME280;31026;43.780;25.948;2022-07-30T13:57:39;100242.44;;;26.61;61.54